sensor_id;sensor_type;location;lat;lon;timestamp;pressure;altitude;pressure_sealevel;temperature;humidity
69780;BME280;57052;55.602;38.096;2023-05-08T00:00:25;101803.97;;;4.75;51.43
69780;BME280;57052;55.602;38.096;2023-05-08T00:02:51;101804.97;;;4.74;51.59
69780;BME280;57052;55.602;38.096;2023-05-08T00:05:16;101803.50;;;4.72;52.06
69780;BME280;57052;55.602;38.096;2023-05-08T00:07:42;101807.59;;;4.68;51.98
69780;BME280;57052;55.602;38.096;2023-05-08T00:10:09;101759.47;;;4.38;52.23
69780;BME280;57052;55.602;38.096;2023-05-08T00:12:35;101807.34;;;4.63;51.97
69780;BME280;57052;55.602;38.096;2023-05-08T00:15:01;101809.41;;;4.61;52.53
69780;BME280;57052;55.602;38.096;2023-05-08T00:17:32;101809.56;;;4.59;52.72
69780;BME280;57052;55.602;38.096;2023-05-08T00:19:58;101810.78;;;4.57;52.87
69780;BME280;57052;55.602;38.096;2023-05-08T00:22:24;101820.50;;;4.58;53.10
69780;BME280;57052;55.602;38.096;2023-05-08T00:24:50;101813.03;;;4.53;52.82
69780;BME280;57052;55.602;38.096;2023-05-08T00:27:16;101816.72;;;4.52;52.55
69780;BME280;57052;55.602;38.096;2023-05-08T00:29:41;101809.84;;;4.43;53.27
69780;BME280;57052;55.602;38.096;2023-05-08T00:32:08;101808.56;;;4.39;52.85
69780;BME280;57052;55.602;38.096;2023-05-08T00:34:34;101827.41;;;4.45;53.43
69780;BME280;57052;55.602;38.096;2023-05-08T00:37:00;101825.28;;;4.41;53.61
69780;BME280;57052;55.602;38.096;2023-05-08T00:39:27;101815.31;;;4.35;53.79
69780;BME280;57052;55.602;38.096;2023-05-08T00:41:53;101829.16;;;4.38;53.84
69780;BME280;57052;55.602;38.096;2023-05-08T00:44:18;101830.19;;;4.37;53.64
69780;BME280;57052;55.602;38.096;2023-05-08T00:46:44;101813.22;;;4.30;54.23
69780;BME280;57052;55.602;38.096;2023-05-08T00:49:11;101830.56;;;4.34;54.15
69780;BME280;57052;55.602;38.096;2023-05-08T00:51:40;101780.59;;;4.06;54.87
69780;BME280;57052;55.602;38.096;2023-05-08T00:54:07;101827.06;;;4.34;54.42
69780;BME280;57052;55.602;38.096;2023-05-08T00:56:34;101826.41;;;4.32;54.53
69780;BME280;57052;55.602;38.096;2023-05-08T00:59:03;101828.25;;;4.31;54.97
69780;BME280;57052;55.602;38.096;2023-05-08T01:01:33;101838.34;;;4.29;55.14
69780;BME280;57052;55.602;38.096;2023-05-08T01:04:02;101835.03;;;4.27;55.41
69780;BME280;57052;55.602;38.096;2023-05-08T01:06:28;101821.31;;;4.16;54.50
69780;BME280;57052;55.602;38.096;2023-05-08T01:08:54;101836.97;;;4.19;55.18
69780;BME280;57052;55.602;38.096;2023-05-08T01:16:59;101846.81;;;4.12;57.30
69780;BME280;57052;55.602;38.096;2023-05-08T01:19:57;101854.13;;;4.03;59.06
69780;BME280;57052;55.602;38.096;2023-05-08T01:34:04;101857.91;;;3.94;58.63
69780;BME280;57052;55.602;38.096;2023-05-08T01:37:05;101857.47;;;3.91;58.75
69780;BME280;57052;55.602;38.096;2023-05-08T01:42:06;101874.19;;;3.93;56.92
69780;BME280;57052;55.602;38.096;2023-05-08T01:44:38;101863.84;;;3.89;57.79
69780;BME280;57052;55.602;38.096;2023-05-08T01:47:07;101863.84;;;3.89;56.47
69780;BME280;57052;55.602;38.096;2023-05-08T01:49:47;101868.56;;;3.87;58.77
69780;BME280;57052;55.602;38.096;2023-05-08T01:52:22;101869.38;;;3.88;58.37
69780;BME280;57052;55.602;38.096;2023-05-08T01:55:11;101867.06;;;3.85;59.12
69780;BME280;57052;55.602;38.096;2023-05-08T01:57:44;101861.16;;;3.89;57.28
69780;BME280;57052;55.602;38.096;2023-05-08T02:00:12;101865.50;;;3.91;56.54
69780;BME280;57052;55.602;38.096;2023-05-08T02:02:39;101849.88;;;3.79;56.31
69780;BME280;57052;55.602;38.096;2023-05-08T02:05:07;101868.81;;;3.93;56.56
69780;BME280;57052;55.602;38.096;2023-05-08T02:07:34;101873.16;;;3.94;56.53
69780;BME280;57052;55.602;38.096;2023-05-08T02:10:03;101869.47;;;3.95;56.41
69780;BME280;57052;55.602;38.096;2023-05-08T02:12:33;101867.97;;;3.92;56.20
69780;BME280;57052;55.602;38.096;2023-05-08T02:15:00;101882.66;;;3.96;56.14
69780;BME280;57052;55.602;38.096;2023-05-08T02:17:32;101880.19;;;3.95;55.55
69780;BME280;57052;55.602;38.096;2023-05-08T02:20:01;101876.84;;;3.93;55.93
69780;BME280;57052;55.602;38.096;2023-05-08T02:22:34;101879.72;;;3.91;56.34
69780;BME280;57052;55.602;38.096;2023-05-08T02:25:01;101886.66;;;4.00;55.91
69780;BME280;57052;55.602;38.096;2023-05-08T02:27:30;101883.13;;;4.00;56.12
69780;BME280;57052;55.602;38.096;2023-05-08T02:29:57;101888.13;;;4.03;56.53
69780;BME280;57052;55.602;38.096;2023-05-08T02:32:25;101898.00;;;4.02;56.39
69780;BME280;57052;55.602;38.096;2023-05-08T02:34:52;101895.53;;;4.01;55.94
69780;BME280;57052;55.602;38.096;2023-05-08T02:37:20;101891.16;;;4.00;56.83
69780;BME280;57052;55.602;38.096;2023-05-08T02:39:50;101891.53;;;3.97;57.28
69780;BME280;57052;55.602;38.096;2023-05-08T02:42:18;101890.34;;;3.99;56.00
69780;BME280;57052;55.602;38.096;2023-05-08T02:44:43;101900.47;;;4.04;56.74
69780;BME280;57052;55.602;38.096;2023-05-08T02:47:26;101901.97;;;4.06;57.29
69780;BME280;57052;55.602;38.096;2023-05-08T02:52:43;101901.22;;;4.12;58.03
69780;BME280;57052;55.602;38.096;2023-05-08T02:55:16;101901.88;;;4.14;57.98
69780;BME280;57052;55.602;38.096;2023-05-08T02:57:49;101908.53;;;4.18;56.35
69780;BME280;57052;55.602;38.096;2023-05-08T03:00:33;101900.03;;;4.15;58.84
69780;BME280;57052;55.602;38.096;2023-05-08T03:03:14;101905.94;;;4.25;59.17
69780;BME280;57052;55.602;38.096;2023-05-08T03:05:48;101885.88;;;4.21;58.07
69780;BME280;57052;55.602;38.096;2023-05-08T03:08:19;101909.16;;;4.35;57.64
69780;BME280;57052;55.602;38.096;2023-05-08T03:10:50;101909.59;;;4.38;57.25
69780;BME280;57052;55.602;38.096;2023-05-08T03:13:19;101907.75;;;4.39;56.72
69780;BME280;57052;55.602;38.096;2023-05-08T03:15:54;101918.34;;;4.47;59.02
69780;BME280;57052;55.602;38.096;2023-05-08T03:18:24;101917.63;;;4.53;56.76
69780;BME280;57052;55.602;38.096;2023-05-08T03:20:53;101920.38;;;4.60;57.73
69780;BME280;57052;55.602;38.096;2023-05-08T03:23:20;101922.66;;;4.63;57.39
69780;BME280;57052;55.602;38.096;2023-05-08T03:25:47;101926.25;;;4.70;56.86
69780;BME280;57052;55.602;38.096;2023-05-08T03:28:14;101916.09;;;4.65;56.76
69780;BME280;57052;55.602;38.096;2023-05-08T03:30:41;101930.09;;;4.82;57.28
69780;BME280;57052;55.602;38.096;2023-05-08T03:33:08;101931.00;;;4.89;56.50
69780;BME280;57052;55.602;38.096;2023-05-08T03:35:38;101904.84;;;4.76;57.35
69780;BME280;57052;55.602;38.096;2023-05-08T03:38:05;101936.50;;;5.02;56.36
69780;BME280;57052;55.602;38.096;2023-05-08T03:40:33;101931.22;;;5.08;57.00
69780;BME280;57052;55.602;38.096;2023-05-08T03:43:05;101934.97;;;5.14;56.73
69780;BME280;57052;55.602;38.096;2023-05-08T03:45:36;101932.94;;;5.16;56.86
69780;BME280;57052;55.602;38.096;2023-05-08T03:48:03;101938.59;;;5.28;55.63
69780;BME280;57052;55.602;38.096;2023-05-08T03:50:30;101934.69;;;5.30;55.43
69780;BME280;57052;55.602;38.096;2023-05-08T03:52:57;101946.78;;;5.41;55.45
69780;BME280;57052;55.602;38.096;2023-05-08T03:55:24;101944.78;;;5.49;55.12
69780;BME280;57052;55.602;38.096;2023-05-08T03:57:56;101950.22;;;5.56;55.62
69780;BME280;57052;55.602;38.096;2023-05-08T04:00:40;101949.41;;;5.62;55.05
69780;BME280;57052;55.602;38.096;2023-05-08T04:03:16;101950.94;;;5.71;53.99
69780;BME280;57052;55.602;38.096;2023-05-08T04:05:50;101954.31;;;5.79;53.61
69780;BME280;57052;55.602;38.096;2023-05-08T04:08:21;101949.81;;;5.87;53.24
69780;BME280;57052;55.602;38.096;2023-05-08T04:11:05;101956.09;;;5.94;52.81
69780;BME280;57052;55.602;38.096;2023-05-08T04:13:36;101943.72;;;5.99;52.91
69780;BME280;57052;55.602;38.096;2023-05-08T04:16:12;101945.66;;;6.12;52.52
69780;BME280;57052;55.602;38.096;2023-05-08T04:18:46;101956.03;;;6.21;52.21
69780;BME280;57052;55.602;38.096;2023-05-08T04:21:15;101955.25;;;6.27;51.89
69780;BME280;57052;55.602;38.096;2023-05-08T04:23:45;101934.75;;;6.26;51.74
69780;BME280;57052;55.602;38.096;2023-05-08T04:26:16;101954.94;;;6.43;51.16
69780;BME280;57052;55.602;38.096;2023-05-08T04:28:42;101937.56;;;6.46;51.65
69780;BME280;57052;55.602;38.096;2023-05-08T04:31:08;101947.53;;;6.59;50.93
69780;BME280;57052;55.602;38.096;2023-05-08T04:33:35;101952.72;;;6.67;50.82
69780;BME280;57052;55.602;38.096;2023-05-08T04:36:01;101943.84;;;6.73;50.53
69780;BME280;57052;55.602;38.096;2023-05-08T04:38:27;101925.00;;;6.73;50.01
69780;BME280;57052;55.602;38.096;2023-05-08T04:40:53;101943.28;;;6.90;49.96
69780;BME280;57052;55.602;38.096;2023-05-08T04:43:19;101941.44;;;6.97;49.56
69780;BME280;57052;55.602;38.096;2023-05-08T04:45:44;101943.09;;;7.05;49.42
69780;BME280;57052;55.602;38.096;2023-05-08T04:48:10;101941.25;;;7.12;49.23
69780;BME280;57052;55.602;38.096;2023-05-08T04:50:36;101949.97;;;7.21;49.40
69780;BME280;57052;55.602;38.096;2023-05-08T04:53:02;101942.94;;;7.26;49.07
69780;BME280;57052;55.602;38.096;2023-05-08T04:55:27;101942.72;;;7.34;48.73
69780;BME280;57052;55.602;38.096;2023-05-08T04:57:53;101943.56;;;7.41;49.00
69780;BME280;57052;55.602;38.096;2023-05-08T05:00:19;101946.25;;;7.48;49.20
69780;BME280;57052;55.602;38.096;2023-05-08T05:02:45;101947.91;;;7.55;48.20
69780;BME280;57052;55.602;38.096;2023-05-08T05:05:10;101953.09;;;7.63;48.29
69780;BME280;57052;55.602;38.096;2023-05-08T05:07:36;101949.34;;;7.71;48.38
69780;BME280;57052;55.602;38.096;2023-05-08T05:10:02;101948.31;;;7.79;47.47
69780;BME280;57052;55.602;38.096;2023-05-08T05:12:32;101955.34;;;7.86;47.61
69780;BME280;57052;55.602;38.096;2023-05-08T05:14:58;101952.63;;;7.93;47.72
69780;BME280;57052;55.602;38.096;2023-05-08T05:17:24;101950.13;;;7.98;46.88
69780;BME280;57052;55.602;38.096;2023-05-08T05:19:49;101949.09;;;8.05;47.51
69780;BME280;57052;55.602;38.096;2023-05-08T05:22:15;101955.28;;;8.12;47.24
69780;BME280;57052;55.602;38.096;2023-05-08T05:24:41;101956.94;;;8.20;46.01
69780;BME280;57052;55.602;38.096;2023-05-08T05:27:06;101959.22;;;8.23;46.08
69780;BME280;57052;55.602;38.096;2023-05-08T05:29:32;101966.47;;;8.35;46.31
69780;BME280;57052;55.602;38.096;2023-05-08T05:31:58;101968.53;;;8.40;45.72
69780;BME280;57052;55.602;38.096;2023-05-08T05:34:23;101966.63;;;8.47;45.68
69780;BME280;57052;55.602;38.096;2023-05-08T05:36:49;101964.13;;;8.52;45.53
69780;BME280;57052;55.602;38.096;2023-05-08T05:39:15;101970.34;;;8.59;45.27
69780;BME280;57052;55.602;38.096;2023-05-08T05:41:40;101967.78;;;8.64;45.45
69780;BME280;57052;55.602;38.096;2023-05-08T05:44:08;101964.03;;;8.72;45.23
69780;BME280;57052;55.602;38.096;2023-05-08T05:46:34;101962.56;;;8.76;44.63
69780;BME280;57052;55.602;38.096;2023-05-08T05:49:00;101959.00;;;8.82;44.38
69780;BME280;57052;55.602;38.096;2023-05-08T05:51:25;101954.44;;;8.82;43.52
69780;BME280;57052;55.602;38.096;2023-05-08T05:53:52;101918.34;;;8.70;43.44
69780;BME280;57052;55.602;38.096;2023-05-08T05:56:18;101948.94;;;8.95;43.81
69780;BME280;57052;55.602;38.096;2023-05-08T05:58:43;101953.03;;;9.04;43.50
69780;BME280;57052;55.602;38.096;2023-05-08T06:01:11;101962.59;;;9.07;43.15
69780;BME280;57052;55.602;38.096;2023-05-08T06:03:36;101961.50;;;9.15;42.90
69780;BME280;57052;55.602;38.096;2023-05-08T06:06:02;101956.72;;;9.17;42.40
69780;BME280;57052;55.602;38.096;2023-05-08T06:08:28;101952.53;;;9.21;42.92
69780;BME280;57052;55.602;38.096;2023-05-08T06:10:54;101945.88;;;9.23;42.26
69780;BME280;57052;55.602;38.096;2023-05-08T06:13:21;101952.81;;;9.37;42.03
69780;BME280;57052;55.602;38.096;2023-05-08T06:15:46;101966.47;;;9.49;41.81
69780;BME280;57052;55.602;38.096;2023-05-08T06:18:12;101962.66;;;9.56;42.12
69780;BME280;57052;55.602;38.096;2023-05-08T06:20:38;101966.31;;;9.68;42.19
69780;BME280;57052;55.602;38.096;2023-05-08T06:23:04;101966.22;;;9.75;42.23
69780;BME280;57052;55.602;38.096;2023-05-08T06:25:30;101961.59;;;9.82;41.93
69780;BME280;57052;55.602;38.096;2023-05-08T06:27:56;101965.69;;;9.91;42.40
69780;BME280;57052;55.602;38.096;2023-05-08T06:30:22;101962.22;;;10.02;41.48
69780;BME280;57052;55.602;38.096;2023-05-08T06:32:47;101943.69;;;10.06;41.06
69780;BME280;57052;55.602;38.096;2023-05-08T06:35:13;101952.53;;;10.19;40.81
69780;BME280;57052;55.602;38.096;2023-05-08T06:37:44;101954.84;;;10.34;41.02
69780;BME280;57052;55.602;38.096;2023-05-08T06:40:11;101962.00;;;10.47;40.39
69780;BME280;57052;55.602;38.096;2023-05-08T06:42:38;101952.06;;;10.59;40.84
69780;BME280;57052;55.602;38.096;2023-05-08T06:45:04;101948.56;;;10.70;40.29
69780;BME280;57052;55.602;38.096;2023-05-08T06:47:31;101942.81;;;10.78;39.93
69780;BME280;57052;55.602;38.096;2023-05-08T06:49:56;101936.97;;;10.81;39.72
69780;BME280;57052;55.602;38.096;2023-05-08T06:52:22;101946.34;;;10.97;39.44
69780;BME280;57052;55.602;38.096;2023-05-08T06:54:50;101942.47;;;11.04;39.19
69780;BME280;57052;55.602;38.096;2023-05-08T06:57:16;101940.47;;;11.11;39.30
69780;BME280;57052;55.602;38.096;2023-05-08T06:59:41;101948.63;;;11.23;39.00
69780;BME280;57052;55.602;38.096;2023-05-08T07:02:07;101950.31;;;11.24;38.72
69780;BME280;57052;55.602;38.096;2023-05-08T07:04:35;101944.50;;;11.20;38.53
69780;BME280;57052;55.602;38.096;2023-05-08T07:07:01;101929.50;;;11.06;38.22
69780;BME280;57052;55.602;38.096;2023-05-08T07:09:27;101929.38;;;11.01;38.05
69780;BME280;57052;55.602;38.096;2023-05-08T07:11:53;101933.88;;;11.07;38.19
69780;BME280;57052;55.602;38.096;2023-05-08T07:14:18;101931.38;;;11.06;38.00
69780;BME280;57052;55.602;38.096;2023-05-08T07:16:44;101938.75;;;11.17;37.91
69780;BME280;57052;55.602;38.096;2023-05-08T07:19:10;101922.47;;;11.17;37.47
69780;BME280;57052;55.602;38.096;2023-05-08T07:21:35;101935.66;;;11.25;37.81
69780;BME280;57052;55.602;38.096;2023-05-08T07:24:01;101938.16;;;11.26;37.62
69780;BME280;57052;55.602;38.096;2023-05-08T07:26:27;101932.28;;;11.29;37.49
69780;BME280;57052;55.602;38.096;2023-05-08T07:28:53;101941.47;;;11.28;37.28
69780;BME280;57052;55.602;38.096;2023-05-08T07:31:19;101942.16;;;11.24;37.00
69780;BME280;57052;55.602;38.096;2023-05-08T07:33:45;101932.94;;;11.13;37.18
69780;BME280;57052;55.602;38.096;2023-05-08T07:36:12;101937.31;;;11.14;37.25
69780;BME280;57052;55.602;38.096;2023-05-08T07:38:37;101933.63;;;11.09;36.82
69780;BME280;57052;55.602;38.096;2023-05-08T07:41:03;101934.94;;;11.06;37.26
69780;BME280;57052;55.602;38.096;2023-05-08T07:43:31;101933.50;;;11.04;36.40
69780;BME280;57052;55.602;38.096;2023-05-08T07:45:57;101933.25;;;11.05;36.71
69780;BME280;57052;55.602;38.096;2023-05-08T07:48:23;101924.69;;;11.08;37.00
69780;BME280;57052;55.602;38.096;2023-05-08T07:50:49;101930.59;;;11.17;36.71
69780;BME280;57052;55.602;38.096;2023-05-08T07:53:15;101921.66;;;11.28;36.78
69780;BME280;57052;55.602;38.096;2023-05-08T07:55:41;101919.44;;;11.36;36.46
69780;BME280;57052;55.602;38.096;2023-05-08T07:58:07;101911.44;;;11.41;36.41
69780;BME280;57052;55.602;38.096;2023-05-08T08:00:33;101922.31;;;11.65;36.21
69780;BME280;57052;55.602;38.096;2023-05-08T08:02:58;101921.88;;;11.79;35.61
69780;BME280;57052;55.602;38.096;2023-05-08T08:05:24;101911.59;;;11.93;35.54
69780;BME280;57052;55.602;38.096;2023-05-08T08:07:49;101909.09;;;12.14;35.46
69780;BME280;57052;55.602;38.096;2023-05-08T08:10:15;101911.88;;;12.31;35.47
69780;BME280;57052;55.602;38.096;2023-05-08T08:12:41;101906.50;;;12.48;34.75
69780;BME280;57052;55.602;38.096;2023-05-08T08:15:07;101888.44;;;12.53;34.37
69780;BME280;57052;55.602;38.096;2023-05-08T08:17:33;101909.88;;;12.66;34.79
69780;BME280;57052;55.602;38.096;2023-05-08T08:19:59;101895.94;;;12.63;34.36
69780;BME280;57052;55.602;38.096;2023-05-08T08:22:25;101910.72;;;12.67;34.26
69780;BME280;57052;55.602;38.096;2023-05-08T08:24:53;101906.00;;;12.62;33.55
69780;BME280;57052;55.602;38.096;2023-05-08T08:27:19;101909.22;;;12.59;33.96
69780;BME280;57052;55.602;38.096;2023-05-08T08:29:45;101901.09;;;12.48;33.91
69780;BME280;57052;55.602;38.096;2023-05-08T08:32:10;101907.81;;;12.45;33.92
69780;BME280;57052;55.602;38.096;2023-05-08T08:34:36;101900.84;;;12.49;34.15
69780;BME280;57052;55.602;38.096;2023-05-08T08:37:04;101896.56;;;12.53;33.27
69780;BME280;57052;55.602;38.096;2023-05-08T08:39:34;101889.63;;;12.57;33.28
69780;BME280;57052;55.602;38.096;2023-05-08T08:42:00;101891.91;;;12.65;33.91
69780;BME280;57052;55.602;38.096;2023-05-08T08:44:26;101891.69;;;12.67;33.70
69780;BME280;57052;55.602;38.096;2023-05-08T08:46:53;101896.88;;;12.68;33.46
69780;BME280;57052;55.602;38.096;2023-05-08T08:49:26;101892.63;;;12.72;31.92
69780;BME280;57052;55.602;38.096;2023-05-08T08:51:57;101883.75;;;12.77;32.04
69780;BME280;57052;55.602;38.096;2023-05-08T08:54:27;101887.13;;;13.01;31.45
69780;BME280;57052;55.602;38.096;2023-05-08T08:56:54;101888.59;;;13.20;32.83
69780;BME280;57052;55.602;38.096;2023-05-08T08:59:23;101885.06;;;13.36;32.15
69780;BME280;57052;55.602;38.096;2023-05-08T09:01:53;101891.22;;;13.48;31.89
69780;BME280;57052;55.602;38.096;2023-05-08T09:04:20;101878.16;;;13.45;32.11
69780;BME280;57052;55.602;38.096;2023-05-08T09:06:48;101888.69;;;13.41;31.34
69780;BME280;57052;55.602;38.096;2023-05-08T09:09:14;101877.63;;;13.31;31.41
69780;BME280;57052;55.602;38.096;2023-05-08T09:11:41;101894.97;;;13.42;31.56
69780;BME280;57052;55.602;38.096;2023-05-08T09:14:08;101876.81;;;13.31;31.48
69780;BME280;57052;55.602;38.096;2023-05-08T09:16:34;101893.56;;;13.39;31.52
69780;BME280;57052;55.602;38.096;2023-05-08T09:19:01;101895.09;;;13.35;31.51
69780;BME280;57052;55.602;38.096;2023-05-08T09:21:27;101891.66;;;13.40;31.92
69780;BME280;57052;55.602;38.096;2023-05-08T09:26:29;101893.38;;;13.46;30.74
69780;BME280;57052;55.602;38.096;2023-05-08T09:29:20;101873.69;;;13.39;29.85
69780;BME280;57052;55.602;38.096;2023-05-08T09:31:51;101894.09;;;13.58;30.61
69780;BME280;57052;55.602;38.096;2023-05-08T09:34:28;101894.19;;;13.63;30.20
69780;BME280;57052;55.602;38.096;2023-05-08T09:36:55;101884.19;;;13.69;31.79
69780;BME280;57052;55.602;38.096;2023-05-08T09:39:34;101887.00;;;13.74;30.95
69780;BME280;57052;55.602;38.096;2023-05-08T09:42:02;101882.94;;;13.76;30.99
69780;BME280;57052;55.602;38.096;2023-05-08T09:44:49;101887.50;;;13.71;29.04
69780;BME280;57052;55.602;38.096;2023-05-08T09:47:20;101880.75;;;13.57;30.92
69780;BME280;57052;55.602;38.096;2023-05-08T09:50:06;101872.75;;;13.67;28.24
69780;BME280;57052;55.602;38.096;2023-05-08T09:52:34;101871.22;;;13.92;30.31
69780;BME280;57052;55.602;38.096;2023-05-08T09:55:08;101862.28;;;13.97;29.20
69780;BME280;57052;55.602;38.096;2023-05-08T09:57:39;101864.31;;;14.06;30.32
69780;BME280;57052;55.602;38.096;2023-05-08T10:00:07;101866.53;;;14.09;30.20
69780;BME280;57052;55.602;38.096;2023-05-08T10:02:35;101849.88;;;14.06;30.56
69780;BME280;57052;55.602;38.096;2023-05-08T10:05:02;101849.63;;;14.07;29.92
69780;BME280;57052;55.602;38.096;2023-05-08T10:07:32;101853.63;;;14.00;29.94
69780;BME280;57052;55.602;38.096;2023-05-08T10:10:03;101859.06;;;14.00;29.00
69780;BME280;57052;55.602;38.096;2023-05-08T10:12:31;101857.91;;;13.96;30.01
69780;BME280;57052;55.602;38.096;2023-05-08T10:14:58;101868.94;;;14.06;30.18
69780;BME280;57052;55.602;38.096;2023-05-08T10:20:08;101867.16;;;14.17;29.89
69780;BME280;57052;55.602;38.096;2023-05-08T10:22:36;101865.91;;;14.24;29.96
69780;BME280;57052;55.602;38.096;2023-05-08T10:25:06;101864.91;;;14.30;28.31
69780;BME280;57052;55.602;38.096;2023-05-08T10:27:43;101862.00;;;14.37;27.94
69780;BME280;57052;55.602;38.096;2023-05-08T10:30:12;101863.84;;;14.53;28.99
69780;BME280;57052;55.602;38.096;2023-05-08T10:32:46;101855.56;;;14.69;27.99
69780;BME280;57052;55.602;38.096;2023-05-08T10:35:17;101845.63;;;14.85;29.22
69780;BME280;57052;55.602;38.096;2023-05-08T10:37:43;101850.91;;;14.97;28.85
69780;BME280;57052;55.602;38.096;2023-05-08T10:40:10;101860.31;;;14.84;28.89
69780;BME280;57052;55.602;38.096;2023-05-08T10:42:40;101852.31;;;14.72;28.52
69780;BME280;57052;55.602;38.096;2023-05-08T10:45:07;101855.78;;;14.68;28.72
69780;BME280;57052;55.602;38.096;2023-05-08T10:53:45;101842.28;;;14.51;27.42
69780;BME280;57052;55.602;38.096;2023-05-08T10:56:14;101850.22;;;14.53;29.74
69780;BME280;57052;55.602;38.096;2023-05-08T10:58:40;101846.16;;;14.55;29.33
69780;BME280;57052;55.602;38.096;2023-05-08T11:03:37;101831.09;;;14.48;29.53
69780;BME280;57052;55.602;38.096;2023-05-08T11:06:02;101847.00;;;14.61;29.24
69780;BME280;57052;55.602;38.096;2023-05-08T11:08:29;101843.47;;;14.60;28.89
69780;BME280;57052;55.602;38.096;2023-05-08T11:13:37;101834.72;;;14.58;27.35
69780;BME280;57052;55.602;38.096;2023-05-08T11:16:04;101836.38;;;14.59;29.11
69780;BME280;57052;55.602;38.096;2023-05-08T11:18:35;101831.81;;;14.65;28.91
69780;BME280;57052;55.602;38.096;2023-05-08T11:21:17;101833.47;;;14.71;28.46
69780;BME280;57052;55.602;38.096;2023-05-08T11:23:55;101835.97;;;14.72;27.59
69780;BME280;57052;55.602;38.096;2023-05-08T11:26:37;101829.22;;;14.80;26.69
69780;BME280;57052;55.602;38.096;2023-05-08T11:29:15;101825.72;;;14.85;26.58
69780;BME280;57052;55.602;38.096;2023-05-08T11:31:51;101824.00;;;15.05;27.38
69780;BME280;57052;55.602;38.096;2023-05-08T11:37:19;101819.09;;;15.07;27.61
69780;BME280;57052;55.602;38.096;2023-05-08T11:39:48;101830.25;;;15.06;27.84
69780;BME280;57052;55.602;38.096;2023-05-08T11:45:11;101825.53;;;14.96;26.17
69780;BME280;57052;55.602;38.096;2023-05-08T11:47:39;101828.00;;;14.98;28.12
69780;BME280;57052;55.602;38.096;2023-05-08T11:50:12;101829.31;;;14.90;27.35
69780;BME280;57052;55.602;38.096;2023-05-08T11:52:39;101819.66;;;14.77;28.30
69780;BME280;57052;55.602;38.096;2023-05-08T11:55:10;101831.69;;;14.82;27.59
69780;BME280;57052;55.602;38.096;2023-05-08T11:57:36;101831.34;;;14.78;28.28
69780;BME280;57052;55.602;38.096;2023-05-08T12:00:09;101833.25;;;14.72;27.05
69780;BME280;57052;55.602;38.096;2023-05-08T12:02:40;101825.00;;;14.67;26.92
69780;BME280;57052;55.602;38.096;2023-05-08T12:05:07;101832.91;;;14.69;28.15
69780;BME280;57052;55.602;38.096;2023-05-08T12:07:46;101823.34;;;14.66;26.83
69780;BME280;57052;55.602;38.096;2023-05-08T12:10:12;101828.28;;;14.69;27.88
69780;BME280;57052;55.602;38.096;2023-05-08T12:12:39;101832.13;;;14.73;28.27
69780;BME280;57052;55.602;38.096;2023-05-08T12:15:11;101822.84;;;14.69;27.90
69780;BME280;57052;55.602;38.096;2023-05-08T12:17:37;101826.44;;;14.75;27.96
69780;BME280;57052;55.602;38.096;2023-05-08T12:22:39;101822.97;;;14.85;28.07
69780;BME280;57052;55.602;38.096;2023-05-08T12:25:07;101821.88;;;14.86;27.82
69780;BME280;57052;55.602;38.096;2023-05-08T12:27:39;101818.19;;;14.97;27.54
69780;BME280;57052;55.602;38.096;2023-05-08T12:30:06;101819.91;;;15.08;27.84
69780;BME280;57052;55.602;38.096;2023-05-08T12:32:35;101811.81;;;15.18;27.74
69780;BME280;57052;55.602;38.096;2023-05-08T12:35:02;101808.38;;;15.32;27.84
69780;BME280;57052;55.602;38.096;2023-05-08T12:37:29;101794.25;;;15.40;27.78
69780;BME280;57052;55.602;38.096;2023-05-08T12:39:55;101808.75;;;15.46;27.34
69780;BME280;57052;55.602;38.096;2023-05-08T12:42:21;101804.94;;;15.47;27.45
69780;BME280;57052;55.602;38.096;2023-05-08T12:44:51;101804.34;;;15.40;25.95
69780;BME280;57052;55.602;38.096;2023-05-08T12:47:19;101801.56;;;15.35;26.92
69780;BME280;57052;55.602;38.096;2023-05-08T12:49:46;101802.09;;;15.32;27.34
69780;BME280;57052;55.602;38.096;2023-05-08T12:52:14;101808.56;;;15.26;27.33
69780;BME280;57052;55.602;38.096;2023-05-08T12:54:46;101800.03;;;15.12;27.19
69780;BME280;57052;55.602;38.096;2023-05-08T12:57:17;101801.94;;;15.12;27.61
69780;BME280;57052;55.602;38.096;2023-05-08T12:59:44;101800.50;;;15.04;27.38
69780;BME280;57052;55.602;38.096;2023-05-08T13:02:16;101806.19;;;14.98;25.91
69780;BME280;57052;55.602;38.096;2023-05-08T13:04:43;101800.94;;;14.91;26.82
69780;BME280;57052;55.602;38.096;2023-05-08T13:07:09;101802.56;;;14.87;27.00
69780;BME280;57052;55.602;38.096;2023-05-08T13:09:36;101794.91;;;14.84;27.00
69780;BME280;57052;55.602;38.096;2023-05-08T13:12:02;101791.84;;;14.81;26.91
69780;BME280;57052;55.602;38.096;2023-05-08T13:14:27;101785.78;;;14.73;27.36
69780;BME280;57052;55.602;38.096;2023-05-08T13:16:53;101791.81;;;14.75;26.98
69780;BME280;57052;55.602;38.096;2023-05-08T13:19:19;101780.06;;;14.70;27.47
69780;BME280;57052;55.602;38.096;2023-05-08T13:21:45;101782.28;;;14.78;27.22
69780;BME280;57052;55.602;38.096;2023-05-08T13:24:13;101794.91;;;14.84;27.35
69780;BME280;57052;55.602;38.096;2023-05-08T13:26:39;101791.66;;;14.87;27.00
69780;BME280;57052;55.602;38.096;2023-05-08T13:29:05;101786.19;;;14.87;26.52
69780;BME280;57052;55.602;38.096;2023-05-08T13:31:30;101776.63;;;14.85;26.49
69780;BME280;57052;55.602;38.096;2023-05-08T13:33:56;101785.72;;;14.95;26.34
69780;BME280;57052;55.602;38.096;2023-05-08T13:36:22;101787.41;;;15.01;26.35
69780;BME280;57052;55.602;38.096;2023-05-08T13:38:49;101778.38;;;15.01;26.06